Time;durP1;ratioP1;P1;durP2;ratioP2;P2;SDS_P1;SDS_P2;PMS_P1;PMS_P2;Temp;Humidity;BMP_temperature;BMP_pressure;BME280_temperature;BME280_humidity;BME280_pressure;Samples;Min_cycle;Max_cycle;Signal;HPM_P1;HPM_P2
2023/10/17 00:02:50;;;;;;;12.55;11.43;;;;;;;8.50;95.04;101899.50;5084170;28;20071;-65
2023/10/17 00:05:15;;;;;;;12.70;11.65;;;;;;;8.40;95.59;101906.94;5072651;28;20107;-65
2023/10/17 00:07:45;;;;;;;9.65;6.97;;;;;;;8.61;95.14;101902.63;5069676;28;20029;-65
2023/10/17 00:10:14;;;;;;;13.20;11.85;;;;;;;8.26;95.76;101903.88;5091012;28;20471;-65
2023/10/17 00:12:43;;;;;;;13.85;12.40;;;;;;;8.34;96.11;101907.13;5090138;28;20024;-65
2023/10/17 00:15:27;;;;;;;12.73;11.35;;;;;;;8.30;96.63;101900.22;5078575;28;20029;-65
2023/10/17 00:18:00;;;;;;;8.00;6.72;;;;;;;8.47;96.02;101900.50;5056851;28;20131;-65
2023/10/17 00:20:32;;;;;;;8.73;6.68;;;;;;;8.48;95.37;101899.56;5090891;28;20077;-65
2023/10/17 00:22:58;;;;;;;11.02;6.65;;;;;;;8.49;95.63;101903.06;5089153;28;20032;-65
2023/10/17 00:25:25;;;;;;;14.52;13.00;;;;;;;8.22;96.15;101903.13;5080440;28;20036;-65
2023/10/17 00:27:51;;;;;;;8.05;6.78;;;;;;;8.45;95.70;101888.22;5094994;28;20058;-65
2023/10/17 00:30:19;;;;;;;8.15;7.18;;;;;;;8.48;95.73;101896.91;5095186;28;20064;-65
2023/10/17 00:32:46;;;;;;;12.23;7.22;;;;;;;8.43;95.39;101872.34;5095504;28;20059;-65
2023/10/17 00:35:19;;;;;;;9.48;6.72;;;;;;;8.47;95.52;101881.94;5095604;28;20027;-65
2023/10/17 00:37:57;;;;;;;8.55;7.28;;;;;;;8.47;95.17;101871.34;5095336;28;20031;-65
2023/10/17 00:40:34;;;;;;;10.55;6.90;;;;;;;8.48;95.16;101877.50;5094500;28;20032;-65
2023/10/17 00:43:05;;;;;;;10.85;6.82;;;;;;;8.42;95.34;101870.63;5097067;28;20108;-65
2023/10/17 00:45:34;;;;;;;13.68;7.65;;;;;;;8.40;95.77;101867.16;5092995;28;20454;-64
2023/10/17 00:48:01;;;;;;;14.23;12.68;;;;;;;8.30;96.24;101877.22;5095288;28;20049;-65
2023/10/17 00:50:28;;;;;;;14.40;12.98;;;;;;;8.13;96.91;101879.63;5076600;28;20020;-64
2023/10/17 00:52:56;;;;;;;7.47;6.28;;;;;;;8.39;96.83;101878.72;5082466;28;20423;-65
2023/10/17 00:55:24;;;;;;;8.05;6.93;;;;;;;8.43;96.03;101868.84;5076500;28;20115;-65
2023/10/17 00:57:52;;;;;;;11.18;6.85;;;;;;;8.43;96.06;101877.66;5095809;28;20081;-65
2023/10/17 01:00:35;;;;;;;7.07;6.10;;;;;;;8.45;95.64;101880.25;5094610;28;20044;-65
2023/10/17 01:03:08;;;;;;;8.63;6.45;;;;;;;8.49;95.55;101881.88;5095049;28;20360;-65
2023/10/17 01:08:39;;;;;;;11.90;6.68;;;;;;;8.44;96.14;101878.50;5094362;28;20087;-65
2023/10/17 01:11:09;;;;;;;14.30;12.80;;;;;;;8.31;96.91;101881.59;5092821;28;20035;-65
2023/10/17 01:13:37;;;;;;;10.60;6.22;;;;;;;8.46;96.07;101882.84;5072384;28;20074;-65
2023/10/17 01:16:07;;;;;;;7.95;7.05;;;;;;;8.49;96.19;101889.81;5080582;28;20028;-65
2023/10/17 01:18:35;;;;;;;14.25;12.90;;;;;;;8.18;96.91;101886.50;5088722;28;20331;-65
2023/10/17 01:21:01;;;;;;;10.10;6.88;;;;;;;8.41;96.36;101885.69;5092421;28;20069;-64
2023/10/17 01:23:29;;;;;;;10.85;6.80;;;;;;;8.41;96.50;101876.84;5081970;28;20418;-64
2023/10/17 01:26:01;;;;;;;7.88;7.03;;;;;;;8.43;96.33;101876.78;5071208;28;20031;-65
2023/10/17 01:28:31;;;;;;;10.63;7.03;;;;;;;8.43;96.28;101869.69;5056484;28;20025;-65
2023/10/17 01:31:01;;;;;;;11.00;6.85;;;;;;;8.40;96.56;101860.06;5066012;28;20020;-64
2023/10/17 01:33:29;;;;;;;13.80;12.35;;;;;;;8.25;96.70;101854.47;5091097;28;20114;-65
2023/10/17 01:35:57;;;;;;;16.30;13.27;;;;;;;8.05;97.51;101866.66;5087339;28;20024;-64
2023/10/17 01:38:26;;;;;;;10.50;6.80;;;;;;;8.31;97.38;101868.34;5093318;28;20024;-65
2023/10/17 01:41:00;;;;;;;14.43;13.20;;;;;;;8.05;97.85;101866.66;5094072;28;20248;-65
2023/10/17 01:43:47;;;;;;;6.75;6.15;;;;;;;8.27;97.03;101871.19;5094159;28;20422;-65
2023/10/17 01:46:15;;;;;;;14.52;6.75;;;;;;;8.28;97.06;101871.09;5092666;28;20434;-64
2023/10/17 01:48:48;;;;;;;15.25;13.68;;;;;;;8.11;97.59;101849.66;5090627;28;20024;-64
2023/10/17 01:51:17;;;;;;;9.00;6.78;;;;;;;8.25;97.54;101849.16;5068416;28;20024;-65
2023/10/17 01:53:49;;;;;;;7.33;6.53;;;;;;;8.22;97.35;101842.19;5090518;28;20028;-65
2023/10/17 01:56:15;;;;;;;7.15;6.35;;;;;;;8.20;97.33;101842.22;5088841;28;20021;-64
2023/10/17 01:58:51;;;;;;;8.90;6.57;;;;;;;8.20;97.66;101838.72;5081366;28;20054;-64
2023/10/17 02:01:17;;;;;;;10.05;7.05;;;;;;;8.18;97.34;101840.59;5067137;28;20040;-65
2023/10/17 02:03:45;;;;;;;14.70;13.43;;;;;;;7.95;98.14;101836.97;5075270;28;20380;-64
2023/10/17 02:06:14;;;;;;;10.80;7.03;;;;;;;8.15;98.35;101830.97;5073705;28;20052;-65
2023/10/17 02:08:46;;;;;;;11.38;8.52;;;;;;;8.18;98.00;101822.91;5092938;28;20032;-64
2023/10/17 02:11:25;;;;;;;10.68;6.95;;;;;;;8.19;97.57;101821.09;5093234;28;20027;-65
2023/10/17 02:13:56;;;;;;;14.65;13.23;;;;;;;8.04;98.24;101822.53;5093495;28;20031;-64
2023/10/17 02:16:33;;;;;;;14.63;13.18;;;;;;;8.06;98.56;101814.50;5076316;28;20032;-65
2023/10/17 02:18:59;;;;;;;9.32;7.15;;;;;;;8.13;98.22;101800.13;5064601;28;20658;-65
2023/10/17 02:21:27;;;;;;;8.40;6.90;;;;;;;8.11;97.84;101801.97;5086443;28;20098;-65
2023/10/17 02:23:53;;;;;;;14.77;7.30;;;;;;;8.12;97.98;101798.41;5067834;28;20055;-64
2023/10/17 02:26:22;;;;;;;7.55;6.85;;;;;;;8.12;97.44;101795.78;5076696;28;20545;-65
2023/10/17 02:28:50;;;;;;;16.52;12.43;;;;;;;7.93;98.59;101800.88;5088174;28;20052;-65
2023/10/17 02:31:16;;;;;;;14.43;13.07;;;;;;;7.85;99.55;101806.47;5096691;28;20026;-65
2023/10/17 02:33:42;;;;;;;7.85;6.65;;;;;;;8.06;99.05;101814.50;5065677;28;20020;-64
2023/10/17 02:36:16;;;;;;;14.63;13.32;;;;;;;8.01;99.33;101825.31;5092313;28;20069;-64
2023/10/17 02:38:45;;;;;;;10.43;8.73;;;;;;;8.09;98.62;101819.69;5093241;28;20020;-64
2023/10/17 02:41:30;;;;;;;14.00;12.50;;;;;;;7.86;99.02;101820.56;5102213;28;20028;-65
2023/10/17 02:43:55;;;;;;;10.23;6.80;;;;;;;8.07;98.83;101821.56;5074557;28;20105;-64
2023/10/17 02:46:28;;;;;;;8.98;7.03;;;;;;;8.08;98.50;101817.97;5091981;28;20059;-64
2023/10/17 02:48:56;;;;;;;14.32;12.82;;;;;;;7.99;99.38;101821.84;5060327;28;20082;-65
2023/10/17 02:53:53;;;;;;;10.13;6.90;;;;;;;8.07;98.72;101817.13;5081935;28;20396;-64
2023/10/17 02:56:19;;;;;;;8.40;6.53;;;;;;;8.05;98.53;101811.00;5074331;28;20408;-64
2023/10/17 02:58:50;;;;;;;8.27;6.80;;;;;;;8.09;98.20;101810.00;5073062;28;20449;-65
2023/10/17 03:01:16;;;;;;;8.60;6.55;;;;;;;8.08;97.98;101807.38;5076377;28;20497;-65
2023/10/17 03:03:49;;;;;;;8.23;7.18;;;;;;;8.04;98.21;101803.13;5088951;28;20040;-65
2023/10/17 03:06:16;;;;;;;15.25;13.25;;;;;;;7.83;98.63;101802.13;5086550;28;20016;-65
2023/10/17 03:09:00;;;;;;;12.68;7.07;;;;;;;8.00;98.41;101796.19;5091863;28;20020;-65
2023/10/17 03:11:35;;;;;;;10.48;7.82;;;;;;;8.04;98.44;101803.13;5067854;28;20089;-64
2023/10/17 03:14:10;;;;;;;8.27;7.03;;;;;;;8.01;98.56;101801.47;5086064;28;20019;-65
2023/10/17 03:16:40;;;;;;;10.73;6.47;;;;;;;8.05;98.43;101807.50;5083311;28;20517;-65
2023/10/17 03:19:05;;;;;;;;;;;;;;;8.08;97.79;101804.72;5079589;28;20021;-64
2023/10/17 03:21:34;;;;;;;9.23;6.90;;;;;;;8.05;97.99;101810.16;5082842;28;19919;-65
2023/10/17 03:24:12;;;;;;;10.95;7.80;;;;;;;7.96;98.48;101793.66;5070619;28;20027;-64
2023/10/17 03:26:54;;;;;;;13.63;8.05;;;;;;;7.92;98.53;101799.16;5088199;28;20487;-65
2023/10/17 03:29:23;;;;;;;10.27;8.90;;;;;;;7.86;98.86;101802.03;5072414;28;20056;-64
2023/10/17 03:31:58;;;;;;;16.08;14.55;;;;;;;7.78;99.72;101809.38;5072046;28;20391;-65
2023/10/17 03:34:57;;;;;;;12.73;7.95;;;;;;;7.84;99.09;101827.69;5088233;28;20530;-65
2023/10/17 03:39:55;;;;;;;10.38;7.88;;;;;;;7.84;99.36;101822.41;5071942;28;20032;-64
2023/10/17 03:47:59;;;;;;;10.57;7.50;;;;;;;7.92;98.66;101817.69;5055738;28;20471;-64
2023/10/17 03:50:34;;;;;;;18.67;16.40;;;;;;;7.72;98.99;101816.63;5071658;28;20016;-65
2023/10/17 03:53:15;;;;;;;11.55;7.65;;;;;;;7.91;98.97;101816.84;5065830;28;20051;-64
2023/10/17 03:55:48;;;;;;;11.48;8.15;;;;;;;7.95;98.71;101820.22;5068838;28;20414;-65
2023/10/17 04:00:48;;;;;;;12.98;8.50;;;;;;;8.00;98.46;101822.69;5082169;28;20055;-65
2023/10/17 04:03:21;;;;;;;12.02;8.32;;;;;;;7.99;98.20;101823.63;5073593;28;20394;-65
2023/10/17 04:06:01;;;;;;;20.42;8.68;;;;;;;7.95;98.44;101815.78;5078409;28;20068;-64
2023/10/17 04:08:31;;;;;;;11.55;7.63;;;;;;;8.00;98.26;101825.34;5081659;28;20110;-65
2023/10/17 04:13:56;;;;;;;16.85;9.07;;;;;;;7.94;98.70;101818.47;5074512;28;20479;-65
2023/10/17 04:16:33;;;;;;;11.57;8.52;;;;;;;7.89;98.68;101829.25;5063928;28;20024;-65
2023/10/17 04:19:04;;;;;;;17.77;15.98;;;;;;;7.73;99.81;101826.31;5085135;28;20024;-65
2023/10/17 04:21:31;;;;;;;11.73;8.88;;;;;;;7.87;99.08;101819.63;5087597;28;20081;-65
2023/10/17 04:24:09;;;;;;;14.68;8.82;;;;;;;7.86;98.80;101817.91;5068520;28;20027;-65
2023/10/17 04:26:35;;;;;;;18.98;16.98;;;;;;;7.72;99.31;101819.25;5082128;28;20028;-65
2023/10/17 04:29:11;;;;;;;12.90;8.75;;;;;;;7.90;99.34;101828.31;5062986;28;20021;-65
2023/10/17 04:31:43;;;;;;;15.55;9.00;;;;;;;7.91;98.63;101827.44;5081995;28;20020;-66
2023/10/17 04:34:14;;;;;;;20.23;18.20;;;;;;;7.72;99.26;101821.91;5090683;28;20020;-65
2023/10/17 04:36:40;;;;;;;19.27;10.05;;;;;;;7.93;98.91;101827.34;5067733;28;20077;-65
2023/10/17 04:39:34;;;;;;;14.13;9.25;;;;;;;7.92;98.85;101829.16;5076409;28;20085;-66
2023/10/17 04:44:32;;;;;;;19.77;17.88;;;;;;;7.65;99.12;101827.50;5091314;28;20028;-65
2023/10/17 04:49:26;;;;;;;21.40;11.00;;;;;;;7.89;99.19;101828.41;5090453;28;20039;-65
2023/10/17 04:52:06;;;;;;;23.15;20.05;;;;;;;7.71;99.47;101827.28;5091289;28;20032;-65
2023/10/17 04:57:06;;;;;;;22.98;18.90;;;;;;;7.65;100.00;101820.41;5091401;28;20027;-65
2023/10/17 05:07:52;;;;;;;17.23;9.63;;;;;;;7.76;99.48;101812.06;5091550;28;20081;-65
2023/10/17 06:18:49;;;;;;;13.65;11.15;;;;;;;7.67;100.00;101799.16;5078926;28;20143;-65
2023/10/17 06:34:21;;;;;;;18.05;12.02;;;;;;;7.76;99.43;101809.41;5077452;28;20070;-65
2023/10/17 06:36:59;;;;;;;15.75;11.50;;;;;;;7.77;99.50;101803.22;5083020;28;20030;-64
2023/10/17 06:39:26;;;;;;;14.93;10.55;;;;;;;7.76;99.55;101803.25;5107746;28;20023;-65
2023/10/17 06:41:56;;;;;;;25.00;12.75;;;;;;;7.77;100.00;101805.00;5096938;28;20088;-65
2023/10/17 06:44:26;;;;;;;14.70;11.25;;;;;;;7.74;100.00;101806.84;5081108;28;20028;-64
2023/10/17 06:54:41;;;;;;;23.50;21.33;;;;;;;7.62;100.00;101814.38;5093288;28;20035;-66
2023/10/17 06:57:19;;;;;;;19.20;12.52;;;;;;;7.84;100.00;101820.59;5067078;28;20222;-65
2023/10/17 06:59:52;;;;;;;18.55;12.88;;;;;;;7.87;99.75;101830.22;5086374;28;20372;-65
2023/10/17 07:02:28;;;;;;;20.23;12.52;;;;;;;7.79;99.67;101822.53;5092384;28;20047;-65
2023/10/17 07:05:00;;;;;;;17.70;12.93;;;;;;;7.79;99.30;101822.53;5072551;28;20386;-65
2023/10/17 07:07:39;;;;;;;14.60;11.63;;;;;;;7.85;99.29;101827.66;5091244;28;20031;-65
2023/10/17 07:10:24;;;;;;;26.02;23.52;;;;;;;7.72;99.23;101832.50;5058829;28;20032;-65
2023/10/17 07:13:28;;;;;;;17.30;12.02;;;;;;;7.88;100.00;101826.66;5092273;28;20038;-65
2023/10/17 07:15:56;;;;;;;18.25;11.48;;;;;;;7.85;99.62;101814.41;5092249;28;20502;-65
2023/10/17 07:18:43;;;;;;;17.02;13.15;;;;;;;7.85;99.63;101814.41;5091182;28;20035;-65
2023/10/17 07:21:17;;;;;;;17.55;12.00;;;;;;;7.83;99.52;101800.34;5091957;28;20039;-65
2023/10/17 07:23:44;;;;;;;18.42;12.40;;;;;;;7.88;99.62;101808.09;5091469;28;20032;-65
2023/10/17 07:28:54;;;;;;;18.77;12.30;;;;;;;7.90;99.47;101806.28;5092618;28;20040;-65
2023/10/17 07:31:22;;;;;;;17.05;11.98;;;;;;;7.92;99.76;101810.59;5092218;28;20020;-65
2023/10/17 07:33:53;;;;;;;19.02;12.18;;;;;;;7.93;99.92;101801.72;5088223;28;20090;-65
2023/10/17 07:36:19;;;;;;;16.20;11.65;;;;;;;7.99;99.54;101808.59;5089422;28;20069;-65
2023/10/17 07:38:45;;;;;;;24.80;22.40;;;;;;;8.00;99.99;101820.03;5088982;28;20433;-65
2023/10/17 07:41:14;;;;;;;16.80;11.27;;;;;;;8.07;99.14;101805.66;5073615;28;20114;-65
2023/10/17 07:43:46;;;;;;;25.33;22.80;;;;;;;8.07;98.76;101811.81;5090702;28;20024;-65
2023/10/17 07:46:26;;;;;;;20.10;11.23;;;;;;;8.21;98.11;101816.63;5062342;28;20723;-65
2023/10/17 07:48:52;;;;;;;16.65;11.68;;;;;;;8.25;97.76;101817.38;5091001;28;20024;-64
2023/10/17 07:51:18;;;;;;;15.00;11.65;;;;;;;8.26;97.45;101811.13;5073255;28;20108;-64
2023/10/17 07:53:47;;;;;;;19.48;11.43;;;;;;;8.24;97.72;101811.19;5091785;28;20106;-65
2023/10/17 07:56:24;;;;;;;21.10;18.90;;;;;;;8.09;97.46;101809.09;5086748;28;20423;-65
2023/10/17 07:58:56;;;;;;;17.20;10.40;;;;;;;8.10;97.67;101800.25;5090512;28;20040;-65
2023/10/17 08:04:24;;;;;;;14.10;10.27;;;;;;;8.11;97.44;101805.47;5073515;28;20472;-65
2023/10/17 08:06:51;;;;;;;16.73;11.13;;;;;;;8.12;97.23;101807.22;5091817;28;20020;-65
2023/10/17 08:11:54;;;;;;;15.52;10.18;;;;;;;8.09;97.46;101794.09;5091344;28;20040;-64
2023/10/17 08:14:40;;;;;;;21.45;19.35;;;;;;;7.99;97.67;101808.59;5091403;28;20035;-65
2023/10/17 08:17:09;;;;;;;22.63;20.52;;;;;;;8.04;98.59;101797.84;5091481;28;20034;-65
2023/10/17 08:22:20;;;;;;;16.08;11.02;;;;;;;8.27;97.58;101804.94;5091257;28;20047;-65
2023/10/17 08:24:51;;;;;;;21.15;19.17;;;;;;;8.26;97.48;101790.78;5072857;28;20513;-65
2023/10/17 08:27:30;;;;;;;13.95;10.32;;;;;;;8.26;96.95;101785.47;5091572;28;20486;-65
2023/10/17 08:30:14;;;;;;;21.42;19.45;;;;;;;8.29;96.37;101788.00;5091438;28;20109;-65
2023/10/17 08:32:39;;;;;;;14.30;9.15;;;;;;;8.39;95.50;101799.19;5091148;28;20035;-65
2023/10/17 08:35:19;;;;;;;12.85;11.27;;;;;;;8.42;95.09;101791.13;5091118;28;20020;-65
2023/10/17 08:37:52;;;;;;;12.98;10.38;;;;;;;8.46;94.21;101792.72;5074900;28;20049;-65
2023/10/17 08:40:29;;;;;;;13.27;10.32;;;;;;;8.47;94.08;101775.00;5090832;28;20459;-65
2023/10/17 08:43:16;;;;;;;15.82;9.52;;;;;;;8.57;93.45;101793.16;5091424;28;20031;-65
2023/10/17 08:45:46;;;;;;;13.93;9.60;;;;;;;8.61;92.72;101801.84;5091426;28;20055;-66
2023/10/17 08:48:14;;;;;;;20.00;17.92;;;;;;;8.63;91.50;101794.69;5075364;28;20027;-65
2023/10/17 08:50:39;;;;;;;15.05;9.50;;;;;;;8.73;91.90;101792.53;5095228;28;20020;-65
2023/10/17 08:53:23;;;;;;;16.67;11.75;;;;;;;8.80;93.06;101802.84;5095192;28;20421;-65
2023/10/17 08:55:50;;;;;;;18.90;17.17;;;;;;;8.96;93.59;101803.06;5094834;28;20077;-65
2023/10/17 08:58:24;;;;;;;14.95;10.30;;;;;;;8.92;91.63;101795.31;5095240;28;20028;-65
2023/10/17 09:00:55;;;;;;;16.33;11.13;;;;;;;9.07;90.21;101808.81;5095151;28;20056;-65
2023/10/17 09:03:23;;;;;;;18.52;16.80;;;;;;;9.24;88.35;101810.78;5094921;28;20024;-65
2023/10/17 09:06:07;;;;;;;16.40;14.90;;;;;;;9.28;87.12;101807.06;5094955;28;20012;-65
2023/10/17 09:11:30;;;;;;;13.00;8.90;;;;;;;9.38;87.94;101796.91;5095029;28;20055;-65
2023/10/17 09:14:24;;;;;;;12.80;9.10;;;;;;;9.44;85.58;101801.97;5094810;28;20498;-65
2023/10/17 09:19:51;;;;;;;8.32;7.47;;;;;;;9.43;85.17;101794.06;5094712;28;20031;-65
2023/10/17 09:22:40;;;;;;;11.82;7.10;;;;;;;9.51;84.55;101798.09;5076544;28;20032;-65
2023/10/17 09:25:23;;;;;;;13.97;8.10;;;;;;;9.57;83.68;101799.63;5094457;28;20019;-65
2023/10/17 09:27:50;;;;;;;14.32;13.02;;;;;;;9.63;83.12;101801.16;5094966;28;20024;-65
2023/10/17 09:30:17;;;;;;;12.00;8.23;;;;;;;9.70;83.49;101807.91;5076603;28;20425;-65
2023/10/17 09:32:43;;;;;;;9.63;7.20;;;;;;;9.75;82.49;101790.00;5076153;28;20474;-65
2023/10/17 09:35:19;;;;;;;9.20;7.78;;;;;;;9.84;82.31;101792.22;5094274;28;20024;-65
2023/10/17 09:37:50;;;;;;;10.27;7.15;;;;;;;9.93;82.34;101798.94;5094516;28;20114;-66
2023/10/17 09:40:25;;;;;;;9.32;8.07;;;;;;;10.03;82.29;101797.59;5093887;28;20027;-65
2023/10/17 09:42:53;;;;;;;8.57;7.38;;;;;;;10.14;81.52;101802.41;5094129;28;20436;-65
2023/10/17 09:45:20;;;;;;;10.90;6.63;;;;;;;10.16;80.55;101798.75;5094279;28;20027;-65
2023/10/17 09:47:52;;;;;;;9.30;6.78;;;;;;;10.26;80.91;101804.50;5075959;28;20016;-66
2023/10/17 09:50:18;;;;;;;16.23;9.98;;;;;;;10.36;77.53;101807.63;5093898;28;20058;-65
2023/10/17 09:52:48;;;;;;;23.08;20.70;;;;;;;10.49;78.87;101797.28;5093846;28;20028;-65
2023/10/17 09:55:19;;;;;;;15.93;14.30;;;;;;;10.62;77.33;101799.28;5093845;28;20020;-65
2023/10/17 09:57:50;;;;;;;8.30;6.60;;;;;;;10.65;75.07;101800.94;5094234;28;20028;-66
2023/10/17 10:00:39;;;;;;;9.45;7.90;;;;;;;10.77;75.02;101805.66;5074872;28;20077;-67
2023/10/17 10:03:06;;;;;;;8.82;6.57;;;;;;;10.94;75.27;101815.47;5093445;28;20052;-65
2023/10/17 10:05:32;;;;;;;10.43;7.97;;;;;;;11.06;74.67;101811.34;5075868;28;20035;-65
2023/10/17 10:08:05;;;;;;;6.47;5.88;;;;;;;11.22;71.10;101822.09;5094418;28;20031;-65
2023/10/17 10:10:43;;;;;;;6.78;5.75;;;;;;;11.31;71.04;101819.84;5075497;28;20070;-65
2023/10/17 10:13:13;;;;;;;7.45;6.55;;;;;;;11.47;71.53;101821.72;5093698;28;20081;-65
2023/10/17 10:16:01;;;;;;;18.20;14.82;;;;;;;11.65;69.25;101815.47;5075551;28;20026;-65
2023/10/17 10:18:35;;;;;;;8.63;7.75;;;;;;;11.86;68.78;101804.66;5093688;28;20024;-65
2023/10/17 10:21:13;;;;;;;8.45;5.80;;;;;;;12.04;67.08;101801.84;5093612;28;20036;-65
2023/10/17 10:23:40;;;;;;;9.85;6.13;;;;;;;12.36;67.85;101799.22;5059660;28;20495;-65
2023/10/17 10:26:11;;;;;;;12.32;9.27;;;;;;;12.67;65.23;101810.84;5093087;28;20466;-65
2023/10/17 10:28:43;;;;;;;10.13;5.57;;;;;;;12.97;65.44;101792.25;5093606;28;20035;-65
2023/10/17 10:31:29;;;;;;;7.47;5.30;;;;;;;13.29;62.70;101778.81;5093593;28;20027;-65
2023/10/17 10:33:56;;;;;;;6.88;5.03;;;;;;;13.64;59.66;101790.91;5092149;28;20038;-65
2023/10/17 10:36:26;;;;;;;5.78;5.03;;;;;;;13.99;57.48;101793.22;5093351;28;20035;-65
2023/10/17 10:38:55;;;;;;;10.68;7.38;;;;;;;14.19;56.47;101796.47;5093237;28;20073;-65
2023/10/17 10:41:22;;;;;;;7.85;7.07;;;;;;;14.49;55.74;101785.63;5074373;28;20024;-65
2023/10/17 10:43:48;;;;;;;7.97;6.32;;;;;;;14.91;53.94;101776.66;5075134;28;20027;-65
2023/10/17 10:46:15;;;;;;;7.20;6.25;;;;;;;15.03;53.08;101769.63;5092748;28;20027;-66
2023/10/17 10:48:53;;;;;;;9.18;6.85;;;;;;;15.39;55.52;101782.34;5074731;28;20024;-65
2023/10/17 10:51:19;;;;;;;6.25;5.75;;;;;;;15.60;52.63;101777.31;5074498;28;20494;-66
2023/10/17 10:53:51;;;;;;;7.55;6.78;;;;;;;16.00;51.52;101769.19;5074850;28;20378;-66
2023/10/17 10:56:20;;;;;;;7.22;5.75;;;;;;;16.11;50.05;101769.25;5092516;28;20032;-65
2023/10/17 10:58:48;;;;;;;6.97;5.68;;;;;;;15.94;47.86;101761.53;5092730;28;20032;-66
2023/10/17 11:01:14;;;;;;;5.60;5.10;;;;;;;16.37;48.37;101766.53;5092307;28;20075;-66
2023/10/17 11:03:46;;;;;;;6.63;5.60;;;;;;;16.62;47.53;101759.34;5092940;28;20023;-66
2023/10/17 11:06:13;;;;;;;6.03;5.47;;;;;;;16.73;47.03;101754.03;5092921;28;20024;-66
2023/10/17 11:08:41;;;;;;;5.97;5.10;;;;;;;17.00;46.99;101754.69;5092936;28;20016;-66
2023/10/17 11:11:09;;;;;;;5.82;5.00;;;;;;;17.62;45.54;101750.81;5091807;28;20020;-66
2023/10/17 11:13:41;;;;;;;6.30;5.30;;;;;;;17.78;43.79;101738.88;5092750;28;20486;-66
2023/10/17 11:16:07;;;;;;;7.53;5.40;;;;;;;18.19;44.55;101740.09;5074357;28;20093;-66
2023/10/17 11:18:34;;;;;;;6.25;5.43;;;;;;;18.53;43.91;101747.13;5092642;28;20079;-66
2023/10/17 11:21:00;;;;;;;8.35;4.68;;;;;;;18.57;41.78;101742.34;5092429;28;20034;-66
2023/10/17 11:23:27;;;;;;;6.70;4.70;;;;;;;18.41;42.24;101739.19;5074282;28;20022;-66
2023/10/17 11:25:53;;;;;;;5.57;4.97;;;;;;;18.57;41.01;101724.31;5092137;28;20023;-66
2023/10/17 11:28:20;;;;;;;5.07;4.57;;;;;;;18.63;40.62;101722.13;5092592;28;20035;-66
2023/10/17 11:30:48;;;;;;;4.55;4.00;;;;;;;18.81;40.62;101718.75;5091844;28;20166;-66
2023/10/17 11:33:16;;;;;;;5.70;4.57;;;;;;;19.05;39.78;101710.41;5092141;28;20032;-66
2023/10/17 11:35:49;;;;;;;7.63;4.45;;;;;;;19.19;40.60;101714.66;5092237;28;20027;-66
2023/10/17 11:38:33;;;;;;;6.53;4.60;;;;;;;18.90;40.37;101719.81;5092227;28;20024;-66
2023/10/17 11:41:07;;;;;;;6.80;4.30;;;;;;;19.19;39.25;101708.41;5091559;28;20051;-66
2023/10/17 11:43:53;;;;;;;5.57;4.40;;;;;;;19.19;38.58;101708.41;5091809;28;20031;-66
2023/10/17 11:46:29;;;;;;;5.25;4.45;;;;;;;19.51;39.44;101705.63;5091765;28;20027;-66
2023/10/17 11:49:20;;;;;;;5.05;4.10;;;;;;;20.19;39.50;101698.66;5073755;28;20023;-66
2023/10/17 11:51:56;;;;;;;4.45;3.95;;;;;;;19.76;38.10;101689.97;5074358;28;20020;-66
2023/10/17 11:54:22;;;;;;;7.10;4.10;;;;;;;20.06;37.10;101697.19;5091879;28;20055;-66
2023/10/17 11:56:48;;;;;;;4.70;4.30;;;;;;;20.10;36.54;101693.25;5091251;28;20062;-66
2023/10/17 11:59:18;;;;;;;6.93;4.30;;;;;;;19.70;36.97;101678.72;5073275;28;20036;-66
2023/10/17 12:01:45;;;;;;;8.25;4.40;;;;;;;20.26;36.72;101711.59;5091416;28;20040;-66
2023/10/17 12:04:11;;;;;;;7.43;4.22;;;;;;;20.32;36.77;101713.75;5091969;28;20024;-66
2023/10/17 12:06:40;;;;;;;6.15;4.07;;;;;;;20.84;34.74;101706.28;5091661;28;20023;-66
2023/10/17 12:09:17;;;;;;;6.18;3.53;;;;;;;20.47;35.09;101706.09;5091981;28;20028;-66
2023/10/17 12:11:47;;;;;;;3.45;3.15;;;;;;;20.95;34.99;101706.16;5090902;28;20027;-66
2023/10/17 12:14:19;;;;;;;4.68;3.97;;;;;;;20.93;33.97;101691.06;5091532;28;20413;-66
2023/10/17 12:16:54;;;;;;;4.32;3.70;;;;;;;20.78;34.44;101679.84;5091643;28;20489;-66
2023/10/17 12:19:26;;;;;;;4.93;3.85;;;;;;;20.36;35.26;101675.50;5091507;28;20035;-66
2023/10/17 12:21:53;;;;;;;4.93;3.90;;;;;;;20.81;35.13;101671.44;5091230;28;20498;-66
2023/10/17 12:24:21;;;;;;;6.88;3.60;;;;;;;20.57;35.95;101670.00;5091613;28;20031;-66
2023/10/17 12:26:49;;;;;;;4.77;4.27;;;;;;;20.56;36.96;101667.44;5091192;28;20024;-66
2023/10/17 12:29:15;;;;;;;4.38;4.07;;;;;;;20.14;37.42;101656.84;5091552;28;20016;-66
2023/10/17 12:31:40;;;;;;;5.80;4.88;;;;;;;20.73;36.99;101652.34;5073074;28;20483;-66
2023/10/17 12:34:10;;;;;;;5.47;3.97;;;;;;;21.50;37.20;101638.69;5091630;28;20099;-66
2023/10/17 12:36:38;;;;;;;5.35;4.10;;;;;;;22.27;33.94;101633.03;5073071;28;20513;-66
2023/10/17 12:39:07;;;;;;;6.53;3.97;;;;;;;21.92;34.62;101635.50;5091409;28;20028;-66
2023/10/17 12:41:36;;;;;;;5.68;3.92;;;;;;;21.87;34.99;101620.69;5090903;28;20069;-66
2023/10/17 12:44:03;;;;;;;5.97;3.60;;;;;;;22.37;33.72;101602.09;5091194;28;20076;-66
2023/10/17 12:46:29;;;;;;;4.25;3.67;;;;;;;22.93;33.64;101607.31;5073319;28;20042;-66
2023/10/17 12:48:57;;;;;;;4.50;4.10;;;;;;;23.01;32.49;101596.53;5091266;28;20384;-66
2023/10/17 12:51:23;;;;;;;4.30;3.90;;;;;;;22.49;33.45;101596.44;5091022;28;20312;-66
2023/10/17 12:53:52;;;;;;;4.72;3.97;;;;;;;23.06;32.58;101605.91;5072904;28;20534;-66
2023/10/17 12:56:20;;;;;;;6.32;4.20;;;;;;;23.30;32.19;101590.78;5090850;28;20040;-67
2023/10/17 12:58:46;;;;;;;6.10;4.40;;;;;;;23.56;31.56;101590.72;5072471;28;20024;-66
2023/10/17 13:01:12;;;;;;;6.35;4.00;;;;;;;23.57;31.41;101592.41;5090976;28;20524;-67
2023/10/17 13:03:38;;;;;;;4.55;4.05;;;;;;;24.04;31.02;101589.19;5072640;28;20060;-66
2023/10/17 13:06:05;;;;;;;6.20;3.70;;;;;;;24.61;29.98;101583.81;5090871;28;20058;-66
2023/10/17 13:08:31;;;;;;;6.60;3.95;;;;;;;24.01;30.31;101584.09;5091434;28;20032;-66
2023/10/17 13:10:57;;;;;;;6.70;4.05;;;;;;;23.74;31.09;101577.91;5091046;28;20023;-66
2023/10/17 13:13:26;;;;;;;5.50;3.75;;;;;;;22.94;32.20;101577.28;5090990;28;20032;-66
2023/10/17 13:15:53;;;;;;;;;;;;;;;24.23;33.79;101577.16;5091442;28;20042;-66
2023/10/17 13:18:19;;;;;;;5.85;4.32;;;;;;;22.55;33.33;101571.41;5091164;28;19915;-67
2023/10/17 13:20:53;;;;;;;4.85;4.30;;;;;;;22.73;32.22;101580.38;5091028;28;20035;-66
2023/10/17 13:23:19;;;;;;;5.47;4.18;;;;;;;22.73;32.42;101582.22;5091203;28;20492;-66
2023/10/17 13:25:48;;;;;;;5.20;4.07;;;;;;;23.05;32.33;101577.03;5090240;28;20028;-66
2023/10/17 13:28:13;;;;;;;6.65;4.50;;;;;;;23.27;32.07;101572.94;5070991;28;20036;-66
2023/10/17 13:30:39;;;;;;;6.30;4.43;;;;;;;23.50;32.06;101573.22;5070786;28;20020;-66
2023/10/17 13:33:06;;;;;;;7.15;4.43;;;;;;;22.75;33.86;101581.06;5052927;28;20089;-66
2023/10/17 13:35:37;;;;;;;6.53;4.33;;;;;;;23.13;31.69;101568.97;5058960;28;20016;-66
2023/10/17 13:38:03;;;;;;;7.78;4.90;;;;;;;23.37;31.37;101561.94;5077261;28;20273;-66
2023/10/17 13:40:32;;;;;;;12.57;4.65;;;;;;;23.94;30.84;101566.72;5093594;28;20059;-66
2023/10/17 13:42:58;;;;;;;7.18;4.68;;;;;;;24.33;29.88;101561.53;5094633;28;20024;-66
2023/10/17 13:45:29;;;;;;;6.30;4.47;;;;;;;24.16;29.77;101562.53;5094045;28;20028;-66
2023/10/17 13:47:55;;;;;;;10.13;4.60;;;;;;;23.76;30.75;101567.72;5093949;28;20051;-66
2023/10/17 13:50:21;;;;;;;7.65;4.90;;;;;;;22.85;32.02;101564.69;5094220;28;20458;-66
2023/10/17 13:52:49;;;;;;;5.00;4.50;;;;;;;21.77;33.56;101564.75;5076219;28;20028;-66
2023/10/17 13:55:27;;;;;;;5.10;4.60;;;;;;;20.39;36.20;101566.28;5093193;28;20052;-66
2023/10/17 13:58:01;;;;;;;6.75;5.28;;;;;;;19.24;37.74;101565.91;5093951;28;20039;-66
2023/10/17 14:00:36;;;;;;;5.45;4.97;;;;;;;18.35;40.54;101550.19;5075812;28;20069;-66
2023/10/17 14:03:05;;;;;;;8.73;5.45;;;;;;;17.80;41.33;101554.78;5093890;28;20078;-66
2023/10/17 14:05:30;;;;;;;;;;;;;;;18.42;40.56;101558.59;5075964;28;20027;-66